Bee House, Texas
Current Conditions -  °F | °C
As of 4:15 PM on Saturday 22 Nov 2014 (Local Time) from KMNZ Reporting Station
Thunderstorm Thunderstorm  
Wind Chill: 60°   Ceiling: 5000
Heat Index: 60°   Visibility: 5mi
Dew Point: 60°   Wind: 20mph
Humidity: 100%   Direction: 130°SE
Pressure: 29.83"   Gusts: 28mph
Location:  31.463°N, 98.243°W
Report Text: KMNZ 222215Z AUTO 13017G24KT 5SM +TSRA SCT044 BKN050 OVC065 16/16 A2983 RMK AO2 LTG DSNT ALQS P0005 T01550155
Loading
Personal Weather Stations






























Interactive Weather Map New forecast layout! Learn more

10-Day Weather Forecast

Advertisements
Track Severe Weather on mobile